Lawrence, Minnesota
Current Conditions -  °F | °C
As of 6:15 PM on Friday 21 Nov 2014 (Local Time) from KGPZ Reporting Station
Broken Clouds Broken Clouds  
Wind Chill: 15°   Ceiling: 12000
Heat Index: 27°   Visibility: 10mi
Dew Point: 19°   Wind: 15mph
Humidity: 74%   Direction: 180°S
Pressure: 29.76"   Gusts: 20mph
Location:  47.3121°N, 93.3823°W
Report Text: KGPZ 220015Z AUTO 18013G17KT 10SM BKN120 M03/M07 A2976 RMK AO1
Loading
Personal Weather Stations






























Interactive Weather Map New forecast layout! Learn more

10-Day Weather Forecast

Advertisements
Track Severe Weather on mobile